sensor_id;sensor_type;location;lat;lon;timestamp;pressure;altitude;pressure_sealevel;temperature;humidity
57050;BME280;42935;50.966;16.992;2023-09-19T00:01:07;100775.52;;;18.10;100.00
57050;BME280;42935;50.966;16.992;2023-09-19T00:04:31;100761.02;;;18.09;100.00
57050;BME280;42935;50.966;16.992;2023-09-19T00:07:48;100757.12;;;18.00;100.00
57050;BME280;42935;50.966;16.992;2023-09-19T00:11:10;100765.01;;;18.01;100.00
57050;BME280;42935;50.966;16.992;2023-09-19T00:14:26;100725.78;;;17.83;100.00
57050;BME280;42935;50.966;16.992;2023-09-19T00:17:41;100769.54;;;17.92;100.00
57050;BME280;42935;50.966;16.992;2023-09-19T00:21:04;100755.98;;;17.85;100.00
57050;BME280;42935;50.966;16.992;2023-09-19T00:24:22;100765.56;;;17.81;100.00
57050;BME280;42935;50.966;16.992;2023-09-19T00:27:38;100766.02;;;17.78;100.00
57050;BME280;42935;50.966;16.992;2023-09-19T00:30:57;100770.75;;;17.80;100.00
57050;BME280;42935;50.966;16.992;2023-09-19T00:34:17;100769.55;;;17.81;100.00
57050;BME280;42935;50.966;16.992;2023-09-19T00:37:31;100755.48;;;17.74;100.00
57050;BME280;42935;50.966;16.992;2023-09-19T00:40:49;100752.56;;;17.72;100.00
57050;BME280;42935;50.966;16.992;2023-09-19T00:44:04;100763.34;;;17.85;100.00
57050;BME280;42935;50.966;16.992;2023-09-19T00:47:19;100759.21;;;17.89;100.00
57050;BME280;42935;50.966;16.992;2023-09-19T00:50:38;100748.84;;;17.90;100.00
57050;BME280;42935;50.966;16.992;2023-09-19T00:53:59;100740.16;;;17.94;100.00
57050;BME280;42935;50.966;16.992;2023-09-19T00:57:12;100752.75;;;17.83;100.00
57050;BME280;42935;50.966;16.992;2023-09-19T01:00:33;100751.71;;;17.86;100.00
57050;BME280;42935;50.966;16.992;2023-09-19T01:03:48;100739.64;;;17.64;100.00
57050;BME280;42935;50.966;16.992;2023-09-19T01:07:07;100740.41;;;17.51;100.00
57050;BME280;42935;50.966;16.992;2023-09-19T01:10:25;100748.69;;;17.56;100.00
57050;BME280;42935;50.966;16.992;2023-09-19T01:13:51;100735.07;;;17.55;100.00
57050;BME280;42935;50.966;16.992;2023-09-19T01:31:04;100754.07;;;17.38;100.00
57050;BME280;42935;50.966;16.992;2023-09-19T01:34:22;100745.02;;;17.41;100.00
57050;BME280;42935;50.966;16.992;2023-09-19T01:37:42;100733.44;;;17.41;100.00
57050;BME280;42935;50.966;16.992;2023-09-19T01:41:09;100728.47;;;17.36;100.00
57050;BME280;42935;50.966;16.992;2023-09-19T01:47:56;100744.44;;;17.21;100.00
57050;BME280;42935;50.966;16.992;2023-09-19T01:51:29;100734.13;;;17.15;100.00
57050;BME280;42935;50.966;16.992;2023-09-19T01:54:50;100744.73;;;17.15;100.00
57050;BME280;42935;50.966;16.992;2023-09-19T01:58:17;100738.25;;;17.13;100.00
57050;BME280;42935;50.966;16.992;2023-09-19T02:01:35;100750.97;;;17.20;100.00
57050;BME280;42935;50.966;16.992;2023-09-19T02:04:51;100752.34;;;17.14;100.00
57050;BME280;42935;50.966;16.992;2023-09-19T02:08:06;100760.82;;;17.21;100.00
57050;BME280;42935;50.966;16.992;2023-09-19T02:11:17;100755.74;;;17.17;100.00
57050;BME280;42935;50.966;16.992;2023-09-19T02:14:34;100762.59;;;17.09;100.00
57050;BME280;42935;50.966;16.992;2023-09-19T02:17:54;100754.48;;;17.13;100.00
57050;BME280;42935;50.966;16.992;2023-09-19T02:21:12;100754.98;;;17.50;100.00
57050;BME280;42935;50.966;16.992;2023-09-19T02:24:25;100755.37;;;17.63;100.00
57050;BME280;42935;50.966;16.992;2023-09-19T02:27:42;100750.44;;;17.76;100.00
57050;BME280;42935;50.966;16.992;2023-09-19T02:31:00;100746.72;;;17.75;100.00
57050;BME280;42935;50.966;16.992;2023-09-19T02:34:12;100732.88;;;17.85;100.00
57050;BME280;42935;50.966;16.992;2023-09-19T02:37:35;100737.23;;;17.93;100.00
57050;BME280;42935;50.966;16.992;2023-09-19T02:40:53;100737.06;;;18.00;100.00
57050;BME280;42935;50.966;16.992;2023-09-19T02:44:13;100726.17;;;17.95;100.00
57050;BME280;42935;50.966;16.992;2023-09-19T02:47:59;100722.74;;;17.98;100.00
57050;BME280;42935;50.966;16.992;2023-09-19T02:51:18;100715.41;;;17.97;100.00
57050;BME280;42935;50.966;16.992;2023-09-19T02:54:31;100724.80;;;18.00;100.00
57050;BME280;42935;50.966;16.992;2023-09-19T02:57:53;100705.00;;;17.62;100.00
57050;BME280;42935;50.966;16.992;2023-09-19T03:01:11;100718.68;;;17.25;100.00
57050;BME280;42935;50.966;16.992;2023-09-19T03:04:29;100719.43;;;17.33;100.00
57050;BME280;42935;50.966;16.992;2023-09-19T03:07:50;100718.78;;;17.51;100.00
57050;BME280;42935;50.966;16.992;2023-09-19T03:11:06;100707.86;;;17.49;100.00
57050;BME280;42935;50.966;16.992;2023-09-19T03:14:29;100711.60;;;17.53;100.00
57050;BME280;42935;50.966;16.992;2023-09-19T03:17:48;100710.09;;;17.53;100.00
57050;BME280;42935;50.966;16.992;2023-09-19T03:21:09;100709.81;;;17.41;100.00
57050;BME280;42935;50.966;16.992;2023-09-19T03:24:23;100720.48;;;17.45;100.00
57050;BME280;42935;50.966;16.992;2023-09-19T03:27:39;100692.50;;;16.97;100.00
57050;BME280;42935;50.966;16.992;2023-09-19T03:31:03;100730.76;;;17.26;100.00
57050;BME280;42935;50.966;16.992;2023-09-19T03:34:20;100730.12;;;17.08;100.00
57050;BME280;42935;50.966;16.992;2023-09-19T03:37:37;100725.33;;;17.05;100.00
57050;BME280;42935;50.966;16.992;2023-09-19T03:40:52;100712.18;;;16.94;100.00
57050;BME280;42935;50.966;16.992;2023-09-19T03:44:05;100725.44;;;17.01;100.00
57050;BME280;42935;50.966;16.992;2023-09-19T03:47:20;100722.66;;;17.01;100.00
57050;BME280;42935;50.966;16.992;2023-09-19T03:50:33;100734.34;;;17.02;100.00
57050;BME280;42935;50.966;16.992;2023-09-19T03:53:46;100733.88;;;17.14;100.00
57050;BME280;42935;50.966;16.992;2023-09-19T03:57:05;100729.53;;;17.22;100.00
57050;BME280;42935;50.966;16.992;2023-09-19T04:00:23;100728.11;;;17.03;100.00
57050;BME280;42935;50.966;16.992;2023-09-19T04:03:42;100734.42;;;17.22;100.00
57050;BME280;42935;50.966;16.992;2023-09-19T04:07:00;100737.79;;;17.12;100.00
57050;BME280;42935;50.966;16.992;2023-09-19T04:10:14;100726.22;;;16.99;100.00
57050;BME280;42935;50.966;16.992;2023-09-19T04:13:31;100730.31;;;17.15;100.00
57050;BME280;42935;50.966;16.992;2023-09-19T04:16:48;100730.00;;;17.27;100.00
57050;BME280;42935;50.966;16.992;2023-09-19T04:20:01;100722.48;;;17.44;100.00
57050;BME280;42935;50.966;16.992;2023-09-19T04:23:22;100713.30;;;17.40;100.00
57050;BME280;42935;50.966;16.992;2023-09-19T04:26:35;100722.36;;;17.38;100.00
57050;BME280;42935;50.966;16.992;2023-09-19T04:29:52;100720.41;;;17.37;100.00
57050;BME280;42935;50.966;16.992;2023-09-19T04:33:14;100719.92;;;17.31;100.00
57050;BME280;42935;50.966;16.992;2023-09-19T04:36:31;100715.56;;;17.29;100.00
57050;BME280;42935;50.966;16.992;2023-09-19T04:39:48;100716.11;;;17.26;100.00
57050;BME280;42935;50.966;16.992;2023-09-19T04:43:03;100731.53;;;17.34;100.00
57050;BME280;42935;50.966;16.992;2023-09-19T04:46:18;100741.47;;;17.16;100.00
57050;BME280;42935;50.966;16.992;2023-09-19T04:49:31;100739.67;;;16.99;100.00
57050;BME280;42935;50.966;16.992;2023-09-19T04:52:49;100744.20;;;16.97;100.00
57050;BME280;42935;50.966;16.992;2023-09-19T04:56:02;100755.64;;;17.08;100.00
57050;BME280;42935;50.966;16.992;2023-09-19T04:59:17;100745.56;;;16.98;100.00
57050;BME280;42935;50.966;16.992;2023-09-19T05:02:34;100754.10;;;16.98;100.00
57050;BME280;42935;50.966;16.992;2023-09-19T05:05:52;100747.52;;;16.97;100.00
57050;BME280;42935;50.966;16.992;2023-09-19T05:09:42;100754.70;;;16.96;100.00
57050;BME280;42935;50.966;16.992;2023-09-19T05:12:59;100757.20;;;17.00;100.00
57050;BME280;42935;50.966;16.992;2023-09-19T05:16:18;100755.15;;;16.98;100.00
57050;BME280;42935;50.966;16.992;2023-09-19T05:19:32;100750.72;;;16.98;100.00
57050;BME280;42935;50.966;16.992;2023-09-19T05:23:01;100766.95;;;17.03;100.00
57050;BME280;42935;50.966;16.992;2023-09-19T05:26:20;100772.42;;;17.05;100.00
57050;BME280;42935;50.966;16.992;2023-09-19T05:29:33;100783.86;;;16.95;100.00
57050;BME280;42935;50.966;16.992;2023-09-19T05:32:48;100773.99;;;16.75;100.00
57050;BME280;42935;50.966;16.992;2023-09-19T05:36:05;100793.56;;;16.78;100.00
57050;BME280;42935;50.966;16.992;2023-09-19T05:39:21;100795.97;;;16.70;100.00
57050;BME280;42935;50.966;16.992;2023-09-19T05:42:39;100791.75;;;16.72;100.00
57050;BME280;42935;50.966;16.992;2023-09-19T05:46:01;100802.16;;;16.77;100.00
57050;BME280;42935;50.966;16.992;2023-09-19T05:49:16;100806.78;;;16.74;100.00
57050;BME280;42935;50.966;16.992;2023-09-19T05:52:33;100799.84;;;16.62;100.00
57050;BME280;42935;50.966;16.992;2023-09-19T05:55:48;100801.88;;;16.73;100.00
57050;BME280;42935;50.966;16.992;2023-09-19T05:59:08;100792.73;;;16.81;100.00
57050;BME280;42935;50.966;16.992;2023-09-19T06:02:25;100793.20;;;16.77;100.00
57050;BME280;42935;50.966;16.992;2023-09-19T06:05:40;100814.26;;;16.86;100.00
57050;BME280;42935;50.966;16.992;2023-09-19T06:08:53;100822.36;;;16.85;100.00
57050;BME280;42935;50.966;16.992;2023-09-19T06:12:21;100832.78;;;16.90;100.00
57050;BME280;42935;50.966;16.992;2023-09-19T06:15:36;100831.73;;;16.90;100.00
57050;BME280;42935;50.966;16.992;2023-09-19T06:18:51;100829.90;;;16.88;100.00
57050;BME280;42935;50.966;16.992;2023-09-19T06:22:06;100831.15;;;16.95;100.00
57050;BME280;42935;50.966;16.992;2023-09-19T06:25:22;100832.75;;;16.98;100.00
57050;BME280;42935;50.966;16.992;2023-09-19T06:28:39;100828.34;;;17.03;100.00
57050;BME280;42935;50.966;16.992;2023-09-19T06:31:55;100834.32;;;17.14;100.00
57050;BME280;42935;50.966;16.992;2023-09-19T06:35:14;100833.72;;;17.22;100.00
57050;BME280;42935;50.966;16.992;2023-09-19T06:38:28;100847.45;;;17.41;100.00
57050;BME280;42935;50.966;16.992;2023-09-19T06:41:46;100845.82;;;17.43;100.00
57050;BME280;42935;50.966;16.992;2023-09-19T06:45:07;100857.91;;;17.63;100.00
57050;BME280;42935;50.966;16.992;2023-09-19T06:48:32;100855.13;;;17.72;100.00
57050;BME280;42935;50.966;16.992;2023-09-19T06:51:45;100868.59;;;17.87;100.00
57050;BME280;42935;50.966;16.992;2023-09-19T06:54:59;100862.97;;;18.01;100.00
57050;BME280;42935;50.966;16.992;2023-09-19T06:58:15;100862.33;;;17.87;100.00
57050;BME280;42935;50.966;16.992;2023-09-19T07:01:38;100877.23;;;18.07;100.00
57050;BME280;42935;50.966;16.992;2023-09-19T07:04:54;100891.89;;;18.08;100.00
57050;BME280;42935;50.966;16.992;2023-09-19T07:08:07;100891.90;;;18.18;100.00
57050;BME280;42935;50.966;16.992;2023-09-19T07:11:28;100884.13;;;18.20;100.00
57050;BME280;42935;50.966;16.992;2023-09-19T07:14:44;100895.31;;;18.25;100.00
57050;BME280;42935;50.966;16.992;2023-09-19T07:18:07;100904.75;;;18.34;100.00
57050;BME280;42935;50.966;16.992;2023-09-19T07:21:28;100890.30;;;18.45;100.00
57050;BME280;42935;50.966;16.992;2023-09-19T07:24:43;100898.35;;;18.54;100.00
57050;BME280;42935;50.966;16.992;2023-09-19T07:28:00;100903.75;;;18.51;100.00
57050;BME280;42935;50.966;16.992;2023-09-19T07:31:13;100896.70;;;18.56;100.00
57050;BME280;42935;50.966;16.992;2023-09-19T07:34:35;100911.96;;;18.58;100.00
57050;BME280;42935;50.966;16.992;2023-09-19T07:37:52;100914.18;;;18.77;100.00
57050;BME280;42935;50.966;16.992;2023-09-19T07:41:09;100921.21;;;18.89;100.00
57050;BME280;42935;50.966;16.992;2023-09-19T07:44:26;100921.97;;;18.87;100.00
57050;BME280;42935;50.966;16.992;2023-09-19T07:47:50;100926.41;;;19.00;100.00
57050;BME280;42935;50.966;16.992;2023-09-19T07:51:06;100928.48;;;19.13;100.00
57050;BME280;42935;50.966;16.992;2023-09-19T07:54:20;100931.55;;;19.00;100.00
57050;BME280;42935;50.966;16.992;2023-09-19T07:57:38;100940.79;;;18.95;100.00
57050;BME280;42935;50.966;16.992;2023-09-19T08:01:06;100944.17;;;19.06;100.00
57050;BME280;42935;50.966;16.992;2023-09-19T08:04:19;100941.54;;;19.21;100.00
57050;BME280;42935;50.966;16.992;2023-09-19T08:07:39;100947.49;;;19.07;100.00
57050;BME280;42935;50.966;16.992;2023-09-19T08:10:57;100953.16;;;19.26;100.00
57050;BME280;42935;50.966;16.992;2023-09-19T08:14:12;100955.88;;;19.24;100.00
57050;BME280;42935;50.966;16.992;2023-09-19T08:17:34;100965.97;;;19.20;100.00
57050;BME280;42935;50.966;16.992;2023-09-19T08:20:52;100960.07;;;19.03;100.00
57050;BME280;42935;50.966;16.992;2023-09-19T08:24:09;100975.24;;;19.07;100.00
57050;BME280;42935;50.966;16.992;2023-09-19T08:27:24;100976.75;;;19.10;100.00
57050;BME280;42935;50.966;16.992;2023-09-19T08:30:42;100961.54;;;19.08;100.00
57050;BME280;42935;50.966;16.992;2023-09-19T08:33:57;100981.26;;;19.21;100.00
57050;BME280;42935;50.966;16.992;2023-09-19T08:37:15;100982.65;;;19.18;100.00
57050;BME280;42935;50.966;16.992;2023-09-19T08:40:38;100989.52;;;19.23;100.00
57050;BME280;42935;50.966;16.992;2023-09-19T08:43:59;100989.50;;;19.20;100.00
57050;BME280;42935;50.966;16.992;2023-09-19T08:47:21;100991.27;;;19.24;100.00
57050;BME280;42935;50.966;16.992;2023-09-19T08:50:43;100981.06;;;19.31;100.00
57050;BME280;42935;50.966;16.992;2023-09-19T08:54:07;100990.55;;;19.34;100.00
57050;BME280;42935;50.966;16.992;2023-09-19T08:57:29;101004.41;;;19.31;100.00
57050;BME280;42935;50.966;16.992;2023-09-19T09:00:53;101005.79;;;19.14;100.00
57050;BME280;42935;50.966;16.992;2023-09-19T09:04:12;101003.74;;;19.17;100.00
57050;BME280;42935;50.966;16.992;2023-09-19T09:07:29;101010.87;;;19.17;100.00
57050;BME280;42935;50.966;16.992;2023-09-19T09:10:46;100997.96;;;19.22;100.00
57050;BME280;42935;50.966;16.992;2023-09-19T09:14:03;101012.65;;;19.52;100.00
57050;BME280;42935;50.966;16.992;2023-09-19T09:17:16;101017.66;;;19.53;100.00
57050;BME280;42935;50.966;16.992;2023-09-19T09:20:35;101013.03;;;19.74;100.00
57050;BME280;42935;50.966;16.992;2023-09-19T09:24:30;101012.96;;;19.92;100.00
57050;BME280;42935;50.966;16.992;2023-09-19T09:28:00;101013.77;;;20.05;100.00
57050;BME280;42935;50.966;16.992;2023-09-19T09:31:23;101013.10;;;20.27;100.00
57050;BME280;42935;50.966;16.992;2023-09-19T09:34:39;101025.21;;;20.40;100.00
57050;BME280;42935;50.966;16.992;2023-09-19T09:38:00;101027.26;;;20.28;100.00
57050;BME280;42935;50.966;16.992;2023-09-19T09:48:25;101045.73;;;20.74;97.00
57050;BME280;42935;50.966;16.992;2023-09-19T09:51:50;101039.52;;;20.53;96.74
57050;BME280;42935;50.966;16.992;2023-09-19T09:55:18;101046.23;;;20.06;96.44
57050;BME280;42935;50.966;16.992;2023-09-19T09:58:52;101045.21;;;19.87;100.00
57050;BME280;42935;50.966;16.992;2023-09-19T10:02:15;101060.55;;;20.06;100.00
57050;BME280;42935;50.966;16.992;2023-09-19T10:05:46;101054.34;;;20.16;100.00
57050;BME280;42935;50.966;16.992;2023-09-19T10:12:31;101057.12;;;20.36;97.01
57050;BME280;42935;50.966;16.992;2023-09-19T10:15:59;101059.66;;;20.07;98.50
57050;BME280;42935;50.966;16.992;2023-09-19T10:19:29;101057.50;;;20.05;98.18
57050;BME280;42935;50.966;16.992;2023-09-19T10:22:50;101068.95;;;20.06;92.01
57050;BME280;42935;50.966;16.992;2023-09-19T10:26:09;101078.48;;;20.12;96.01
57050;BME280;42935;50.966;16.992;2023-09-19T10:29:23;101073.34;;;20.23;91.55
57050;BME280;42935;50.966;16.992;2023-09-19T10:32:40;101077.19;;;20.39;91.14
57050;BME280;42935;50.966;16.992;2023-09-19T10:35:59;101072.77;;;20.51;91.41
57050;BME280;42935;50.966;16.992;2023-09-19T10:39:14;101075.73;;;20.67;90.46
57050;BME280;42935;50.966;16.992;2023-09-19T10:42:38;101084.16;;;20.83;86.65
57050;BME280;42935;50.966;16.992;2023-09-19T10:45:54;101092.09;;;20.89;84.29
57050;BME280;42935;50.966;16.992;2023-09-19T10:49:16;101091.53;;;21.11;79.90
57050;BME280;42935;50.966;16.992;2023-09-19T10:52:34;101074.32;;;21.23;79.37
57050;BME280;42935;50.966;16.992;2023-09-19T10:55:59;101093.62;;;21.00;79.02
57050;BME280;42935;50.966;16.992;2023-09-19T10:59:17;101086.00;;;21.14;76.40
57050;BME280;42935;50.966;16.992;2023-09-19T11:02:32;101086.84;;;20.96;74.44
57050;BME280;42935;50.966;16.992;2023-09-19T11:06:25;101076.66;;;20.97;76.03
57050;BME280;42935;50.966;16.992;2023-09-19T11:09:51;101083.51;;;21.06;75.36
57050;BME280;42935;50.966;16.992;2023-09-19T11:20:17;101069.52;;;21.73;75.30
57050;BME280;42935;50.966;16.992;2023-09-19T11:27:17;101058.98;;;21.81;69.81
57050;BME280;42935;50.966;16.992;2023-09-19T11:30:40;101079.28;;;21.03;67.09
57050;BME280;42935;50.966;16.992;2023-09-19T11:47:41;101091.65;;;21.10;63.82
57050;BME280;42935;50.966;16.992;2023-09-19T11:51:00;101092.79;;;20.99;64.91
57050;BME280;42935;50.966;16.992;2023-09-19T11:54:25;101094.41;;;21.38;63.96
57050;BME280;42935;50.966;16.992;2023-09-19T11:57:51;101097.44;;;21.72;64.10
57050;BME280;42935;50.966;16.992;2023-09-19T12:01:13;101098.41;;;21.52;63.68
57050;BME280;42935;50.966;16.992;2023-09-19T12:04:34;101085.42;;;21.45;64.71
57050;BME280;42935;50.966;16.992;2023-09-19T12:07:51;101099.02;;;21.69;64.28
57050;BME280;42935;50.966;16.992;2023-09-19T12:11:04;101092.76;;;21.70;63.58
57050;BME280;42935;50.966;16.992;2023-09-19T12:14:54;101088.95;;;21.75;64.01
57050;BME280;42935;50.966;16.992;2023-09-19T12:18:08;101086.45;;;21.91;64.85
57050;BME280;42935;50.966;16.992;2023-09-19T12:24:53;101075.75;;;22.72;63.64
57050;BME280;42935;50.966;16.992;2023-09-19T12:28:12;101080.14;;;22.47;61.91
57050;BME280;42935;50.966;16.992;2023-09-19T12:31:29;101081.42;;;22.99;60.32
57050;BME280;42935;50.966;16.992;2023-09-19T12:34:53;101078.47;;;22.55;57.54
57050;BME280;42935;50.966;16.992;2023-09-19T12:38:13;101081.12;;;22.60;57.92
57050;BME280;42935;50.966;16.992;2023-09-19T12:41:42;101080.00;;;22.46;57.88
57050;BME280;42935;50.966;16.992;2023-09-19T12:45:08;101081.71;;;23.26;56.98
57050;BME280;42935;50.966;16.992;2023-09-19T12:48:25;101078.70;;;23.66;57.52
57050;BME280;42935;50.966;16.992;2023-09-19T12:51:48;101072.30;;;23.41;55.74
57050;BME280;42935;50.966;16.992;2023-09-19T12:55:02;101082.16;;;23.77;56.02
57050;BME280;42935;50.966;16.992;2023-09-19T12:58:16;101083.80;;;23.57;55.59
57050;BME280;42935;50.966;16.992;2023-09-19T13:01:35;101064.30;;;23.31;56.49
57050;BME280;42935;50.966;16.992;2023-09-19T13:04:57;101067.45;;;23.72;55.50
57050;BME280;42935;50.966;16.992;2023-09-19T13:08:32;101069.70;;;23.09;56.37
57050;BME280;42935;50.966;16.992;2023-09-19T13:11:47;101047.95;;;23.86;55.81
57050;BME280;42935;50.966;16.992;2023-09-19T13:15:15;101039.73;;;24.30;55.09
57050;BME280;42935;50.966;16.992;2023-09-19T13:18:47;101041.80;;;23.84;56.22
57050;BME280;42935;50.966;16.992;2023-09-19T13:25:35;101041.11;;;24.11;55.01
57050;BME280;42935;50.966;16.992;2023-09-19T13:28:52;101035.13;;;23.69;55.23
57050;BME280;42935;50.966;16.992;2023-09-19T13:32:08;101030.20;;;24.72;54.98
57050;BME280;42935;50.966;16.992;2023-09-19T13:35:25;101037.00;;;24.68;54.73
57050;BME280;42935;50.966;16.992;2023-09-19T13:38:42;101036.04;;;24.52;53.50
57050;BME280;42935;50.966;16.992;2023-09-19T13:41:59;101016.74;;;24.45;54.09
57050;BME280;42935;50.966;16.992;2023-09-19T13:45:18;101031.02;;;24.54;53.95
57050;BME280;42935;50.966;16.992;2023-09-19T13:48:40;101032.82;;;24.92;53.95
57050;BME280;42935;50.966;16.992;2023-09-19T13:51:57;101025.50;;;24.98;52.93
57050;BME280;42935;50.966;16.992;2023-09-19T13:55:15;101031.78;;;25.31;52.93
57050;BME280;42935;50.966;16.992;2023-09-19T13:58:36;101024.02;;;24.97;53.05
57050;BME280;42935;50.966;16.992;2023-09-19T14:01:51;101013.17;;;25.25;52.60
57050;BME280;42935;50.966;16.992;2023-09-19T14:05:09;101020.79;;;25.31;52.91
57050;BME280;42935;50.966;16.992;2023-09-19T14:08:30;101023.87;;;24.90;52.89
57050;BME280;42935;50.966;16.992;2023-09-19T14:11:51;101013.45;;;25.15;52.46
57050;BME280;42935;50.966;16.992;2023-09-19T14:15:08;101020.77;;;25.27;52.06
57050;BME280;42935;50.966;16.992;2023-09-19T14:18:26;101026.82;;;24.87;52.40
57050;BME280;42935;50.966;16.992;2023-09-19T14:21:37;101022.26;;;25.24;52.01
57050;BME280;42935;50.966;16.992;2023-09-19T14:24:53;101009.27;;;25.80;51.63
57050;BME280;42935;50.966;16.992;2023-09-19T14:28:11;101011.01;;;25.90;51.82
57050;BME280;42935;50.966;16.992;2023-09-19T14:31:24;101014.02;;;26.27;50.77
57050;BME280;42935;50.966;16.992;2023-09-19T14:34:43;101010.88;;;25.80;50.97
57050;BME280;42935;50.966;16.992;2023-09-19T14:37:58;101019.75;;;25.73;51.98
57050;BME280;42935;50.966;16.992;2023-09-19T14:41:15;101010.81;;;25.46;51.59
57050;BME280;42935;50.966;16.992;2023-09-19T14:44:32;101021.73;;;25.21;53.27
57050;BME280;42935;50.966;16.992;2023-09-19T14:47:51;101011.86;;;24.78;53.08
57050;BME280;42935;50.966;16.992;2023-09-19T14:51:07;101029.71;;;24.90;53.78
57050;BME280;42935;50.966;16.992;2023-09-19T14:54:26;101027.98;;;25.29;53.47
57050;BME280;42935;50.966;16.992;2023-09-19T14:57:43;101018.15;;;24.58;54.50
57050;BME280;42935;50.966;16.992;2023-09-19T15:01:06;101013.86;;;24.58;54.56
57050;BME280;42935;50.966;16.992;2023-09-19T15:04:27;101019.83;;;24.38;55.23
57050;BME280;42935;50.966;16.992;2023-09-19T15:07:45;101020.90;;;24.58;56.00
57050;BME280;42935;50.966;16.992;2023-09-19T15:11:02;101030.34;;;24.65;56.20
57050;BME280;42935;50.966;16.992;2023-09-19T15:14:22;101028.36;;;24.16;56.61
57050;BME280;42935;50.966;16.992;2023-09-19T15:17:41;101013.30;;;23.91;57.92
57050;BME280;42935;50.966;16.992;2023-09-19T15:20:54;101028.43;;;23.51;58.83
57050;BME280;42935;50.966;16.992;2023-09-19T15:24:09;101028.43;;;23.32;59.60
57050;BME280;42935;50.966;16.992;2023-09-19T15:27:26;101028.51;;;23.39;59.90
57050;BME280;42935;50.966;16.992;2023-09-19T15:30:44;101037.37;;;23.98;59.29
57050;BME280;42935;50.966;16.992;2023-09-19T15:33:57;101026.02;;;24.26;58.14
57050;BME280;42935;50.966;16.992;2023-09-19T15:37:16;101036.55;;;23.94;59.39
57050;BME280;42935;50.966;16.992;2023-09-19T15:40:46;101036.87;;;24.19;58.43
57050;BME280;42935;50.966;16.992;2023-09-19T15:44:03;101037.95;;;24.16;58.79
57050;BME280;42935;50.966;16.992;2023-09-19T15:47:19;101027.30;;;23.66;60.01
57050;BME280;42935;50.966;16.992;2023-09-19T15:50:37;101033.23;;;23.39;60.78
57050;BME280;42935;50.966;16.992;2023-09-19T15:53:56;101043.52;;;23.01;62.39
57050;BME280;42935;50.966;16.992;2023-09-19T15:57:13;101046.84;;;22.86;62.66
57050;BME280;42935;50.966;16.992;2023-09-19T16:01:05;101046.97;;;22.37;64.30
57050;BME280;42935;50.966;16.992;2023-09-19T16:04:22;101042.76;;;22.35;65.17
57050;BME280;42935;50.966;16.992;2023-09-19T16:07:39;101056.63;;;22.31;65.13
57050;BME280;42935;50.966;16.992;2023-09-19T16:10:52;101061.45;;;22.30;65.55
57050;BME280;42935;50.966;16.992;2023-09-19T16:14:17;101068.60;;;21.98;66.49
57050;BME280;42935;50.966;16.992;2023-09-19T16:17:30;101064.80;;;21.79;67.63
57050;BME280;42935;50.966;16.992;2023-09-19T16:20:47;101063.87;;;21.71;67.75
57050;BME280;42935;50.966;16.992;2023-09-19T16:24:03;101061.90;;;21.81;67.50
57050;BME280;42935;50.966;16.992;2023-09-19T16:27:19;101068.97;;;21.59;68.48
57050;BME280;42935;50.966;16.992;2023-09-19T16:30:37;101065.70;;;21.47;68.96
57050;BME280;42935;50.966;16.992;2023-09-19T16:33:54;101075.64;;;21.24;70.54
57050;BME280;42935;50.966;16.992;2023-09-19T16:37:20;101080.09;;;21.11;71.15
57050;BME280;42935;50.966;16.992;2023-09-19T16:40:38;101075.93;;;21.18;70.67
57050;BME280;42935;50.966;16.992;2023-09-19T16:43:54;101084.57;;;21.26;70.68
57050;BME280;42935;50.966;16.992;2023-09-19T16:47:05;101074.23;;;21.13;69.84
57050;BME280;42935;50.966;16.992;2023-09-19T16:50:22;101084.25;;;21.12;71.82
57050;BME280;42935;50.966;16.992;2023-09-19T16:53:40;101101.85;;;20.97;73.47
57050;BME280;42935;50.966;16.992;2023-09-19T16:57:01;101097.53;;;20.73;75.28
57050;BME280;42935;50.966;16.992;2023-09-19T17:00:16;101066.98;;;20.23;77.37
57050;BME280;42935;50.966;16.992;2023-09-19T17:03:35;101085.24;;;20.19;77.76
57050;BME280;42935;50.966;16.992;2023-09-19T17:06:48;101099.27;;;20.12;78.87
57050;BME280;42935;50.966;16.992;2023-09-19T17:10:01;101104.90;;;19.87;82.78
57050;BME280;42935;50.966;16.992;2023-09-19T17:13:17;101113.48;;;19.75;81.18
57050;BME280;42935;50.966;16.992;2023-09-19T17:16:32;101116.45;;;19.63;82.46
57050;BME280;42935;50.966;16.992;2023-09-19T17:20:25;101103.16;;;19.34;84.58
57050;BME280;42935;50.966;16.992;2023-09-19T17:23:43;101114.81;;;19.45;85.83
57050;BME280;42935;50.966;16.992;2023-09-19T17:26:58;101117.96;;;19.36;85.93
57050;BME280;42935;50.966;16.992;2023-09-19T17:30:13;101117.65;;;19.24;89.01
57050;BME280;42935;50.966;16.992;2023-09-19T17:33:29;101125.59;;;18.97;93.32
57050;BME280;42935;50.966;16.992;2023-09-19T17:36:45;101132.96;;;18.89;89.92
57050;BME280;42935;50.966;16.992;2023-09-19T17:40:00;101130.96;;;18.78;91.18
57050;BME280;42935;50.966;16.992;2023-09-19T17:43:27;101127.77;;;18.54;92.24
57050;BME280;42935;50.966;16.992;2023-09-19T17:46:39;101148.95;;;18.57;92.23
57050;BME280;42935;50.966;16.992;2023-09-19T17:49:52;101144.88;;;18.42;97.69
57050;BME280;42935;50.966;16.992;2023-09-19T17:53:11;101156.21;;;18.06;100.00
57050;BME280;42935;50.966;16.992;2023-09-19T17:56:36;101163.30;;;18.26;100.00
57050;BME280;42935;50.966;16.992;2023-09-19T17:59:57;101170.52;;;18.22;100.00